sensor_id;sensor_type;location;lat;lon;timestamp;P1;durP1;ratioP1;P2;durP2;ratioP2
17763;SDS011;22245;52.832;13.816;2023-04-29T00:00:06;9.10;;;6.43;;
17763;SDS011;22245;52.832;13.816;2023-04-29T00:03:34;10.05;;;6.95;;
17763;SDS011;22245;52.832;13.816;2023-04-29T00:06:56;8.55;;;6.95;;
17763;SDS011;22245;52.832;13.816;2023-04-29T00:10:17;12.52;;;6.45;;
17763;SDS011;22245;52.832;13.816;2023-04-29T00:13:39;9.35;;;6.72;;
17763;SDS011;22245;52.832;13.816;2023-04-29T00:17:00;10.35;;;7.10;;
17763;SDS011;22245;52.832;13.816;2023-04-29T00:20:23;10.93;;;6.55;;
17763;SDS011;22245;52.832;13.816;2023-04-29T00:23:44;11.40;;;7.43;;
17763;SDS011;22245;52.832;13.816;2023-04-29T00:27:05;9.15;;;6.70;;
17763;SDS011;22245;52.832;13.816;2023-04-29T00:30:27;10.77;;;7.07;;
17763;SDS011;22245;52.832;13.816;2023-04-29T00:33:49;15.73;;;7.50;;
17763;SDS011;22245;52.832;13.816;2023-04-29T00:37:11;9.45;;;7.05;;
17763;SDS011;22245;52.832;13.816;2023-04-29T00:40:33;13.75;;;7.85;;
17763;SDS011;22245;52.832;13.816;2023-04-29T00:43:55;11.65;;;6.95;;
17763;SDS011;22245;52.832;13.816;2023-04-29T00:47:17;11.35;;;7.28;;
17763;SDS011;22245;52.832;13.816;2023-04-29T00:50:38;14.88;;;7.40;;
17763;SDS011;22245;52.832;13.816;2023-04-29T00:54:02;11.43;;;8.02;;
17763;SDS011;22245;52.832;13.816;2023-04-29T00:57:25;10.65;;;7.32;;
17763;SDS011;22245;52.832;13.816;2023-04-29T01:00:47;9.93;;;8.10;;
17763;SDS011;22245;52.832;13.816;2023-04-29T01:04:09;10.73;;;7.78;;
17763;SDS011;22245;52.832;13.816;2023-04-29T01:07:33;11.40;;;7.90;;
17763;SDS011;22245;52.832;13.816;2023-04-29T01:11:05;9.80;;;7.68;;
17763;SDS011;22245;52.832;13.816;2023-04-29T01:14:29;13.75;;;8.13;;
17763;SDS011;22245;52.832;13.816;2023-04-29T01:17:54;10.00;;;7.45;;
17763;SDS011;22245;52.832;13.816;2023-04-29T01:21:19;13.32;;;8.48;;
17763;SDS011;22245;52.832;13.816;2023-04-29T01:24:43;12.82;;;8.30;;
17763;SDS011;22245;52.832;13.816;2023-04-29T01:28:07;11.60;;;8.10;;
17763;SDS011;22245;52.832;13.816;2023-04-29T01:31:40;10.70;;;7.57;;
17763;SDS011;22245;52.832;13.816;2023-04-29T01:35:09;10.20;;;8.52;;
17763;SDS011;22245;52.832;13.816;2023-04-29T01:38:38;11.63;;;8.48;;
17763;SDS011;22245;52.832;13.816;2023-04-29T01:42:08;12.07;;;8.38;;
17763;SDS011;22245;52.832;13.816;2023-04-29T01:45:37;11.55;;;8.32;;
17763;SDS011;22245;52.832;13.816;2023-04-29T01:49:00;12.43;;;8.50;;
17763;SDS011;22245;52.832;13.816;2023-04-29T01:52:22;11.82;;;8.20;;
17763;SDS011;22245;52.832;13.816;2023-04-29T01:55:48;11.63;;;7.90;;
17763;SDS011;22245;52.832;13.816;2023-04-29T01:59:21;10.43;;;7.70;;
17763;SDS011;22245;52.832;13.816;2023-04-29T02:02:59;9.15;;;7.78;;
17763;SDS011;22245;52.832;13.816;2023-04-29T02:06:30;10.32;;;8.20;;
17763;SDS011;22245;52.832;13.816;2023-04-29T02:09:55;10.30;;;8.27;;
17763;SDS011;22245;52.832;13.816;2023-04-29T02:13:17;11.93;;;7.93;;
17763;SDS011;22245;52.832;13.816;2023-04-29T02:16:42;12.50;;;8.70;;
17763;SDS011;22245;52.832;13.816;2023-04-29T02:20:05;10.65;;;8.40;;
17763;SDS011;22245;52.832;13.816;2023-04-29T02:23:27;10.93;;;8.50;;
17763;SDS011;22245;52.832;13.816;2023-04-29T02:26:49;13.57;;;8.95;;
17763;SDS011;22245;52.832;13.816;2023-04-29T02:30:12;12.40;;;8.55;;
17763;SDS011;22245;52.832;13.816;2023-04-29T02:33:35;10.65;;;8.35;;
17763;SDS011;22245;52.832;13.816;2023-04-29T02:36:57;17.15;;;8.77;;
17763;SDS011;22245;52.832;13.816;2023-04-29T02:40:18;11.90;;;8.90;;
17763;SDS011;22245;52.832;13.816;2023-04-29T02:43:40;10.57;;;8.75;;
17763;SDS011;22245;52.832;13.816;2023-04-29T02:47:03;13.43;;;9.05;;
17763;SDS011;22245;52.832;13.816;2023-04-29T02:50:26;13.85;;;9.10;;
17763;SDS011;22245;52.832;13.816;2023-04-29T02:53:48;13.63;;;8.85;;
17763;SDS011;22245;52.832;13.816;2023-04-29T02:57:09;12.90;;;8.98;;
17763;SDS011;22245;52.832;13.816;2023-04-29T03:00:30;13.05;;;9.23;;
17763;SDS011;22245;52.832;13.816;2023-04-29T03:03:52;11.88;;;9.32;;
17763;SDS011;22245;52.832;13.816;2023-04-29T03:07:15;12.77;;;9.52;;
17763;SDS011;22245;52.832;13.816;2023-04-29T03:10:37;12.20;;;9.27;;
17763;SDS011;22245;52.832;13.816;2023-04-29T03:14:00;11.43;;;9.23;;
17763;SDS011;22245;52.832;13.816;2023-04-29T03:17:22;13.23;;;9.30;;
17763;SDS011;22245;52.832;13.816;2023-04-29T03:20:47;12.70;;;9.45;;
17763;SDS011;22245;52.832;13.816;2023-04-29T03:24:10;13.65;;;9.45;;
17763;SDS011;22245;52.832;13.816;2023-04-29T03:27:31;12.90;;;10.32;;
17763;SDS011;22245;52.832;13.816;2023-04-29T03:30:52;13.48;;;9.95;;
17763;SDS011;22245;52.832;13.816;2023-04-29T03:34:16;14.63;;;9.98;;
17763;SDS011;22245;52.832;13.816;2023-04-29T03:37:44;15.27;;;10.10;;
17763;SDS011;22245;52.832;13.816;2023-04-29T03:41:27;13.70;;;9.70;;
17763;SDS011;22245;52.832;13.816;2023-04-29T03:44:48;13.23;;;10.07;;
17763;SDS011;22245;52.832;13.816;2023-04-29T03:48:10;17.02;;;10.55;;
17763;SDS011;22245;52.832;13.816;2023-04-29T03:51:32;13.88;;;10.95;;
17763;SDS011;22245;52.832;13.816;2023-04-29T03:55:02;14.23;;;10.40;;
17763;SDS011;22245;52.832;13.816;2023-04-29T03:58:26;18.88;;;10.52;;
17763;SDS011;22245;52.832;13.816;2023-04-29T04:01:48;13.32;;;10.20;;
17763;SDS011;22245;52.832;13.816;2023-04-29T04:05:10;14.07;;;9.98;;
17763;SDS011;22245;52.832;13.816;2023-04-29T04:08:35;13.18;;;10.23;;
17763;SDS011;22245;52.832;13.816;2023-04-29T04:12:05;14.32;;;10.38;;
17763;SDS011;22245;52.832;13.816;2023-04-29T04:15:28;13.45;;;10.40;;
17763;SDS011;22245;52.832;13.816;2023-04-29T04:18:51;14.93;;;10.88;;
17763;SDS011;22245;52.832;13.816;2023-04-29T04:22:12;12.95;;;10.18;;
17763;SDS011;22245;52.832;13.816;2023-04-29T04:25:48;14.25;;;11.02;;
17763;SDS011;22245;52.832;13.816;2023-04-29T04:29:30;16.60;;;11.48;;
17763;SDS011;22245;52.832;13.816;2023-04-29T04:32:58;13.32;;;10.77;;
17763;SDS011;22245;52.832;13.816;2023-04-29T04:36:20;15.45;;;11.32;;
17763;SDS011;22245;52.832;13.816;2023-04-29T04:39:42;15.45;;;10.80;;
17763;SDS011;22245;52.832;13.816;2023-04-29T04:43:06;19.00;;;11.45;;
17763;SDS011;22245;52.832;13.816;2023-04-29T04:46:31;16.67;;;11.43;;
17763;SDS011;22245;52.832;13.816;2023-04-29T04:50:03;16.02;;;11.27;;
17763;SDS011;22245;52.832;13.816;2023-04-29T04:53:25;16.73;;;11.75;;
17763;SDS011;22245;52.832;13.816;2023-04-29T04:56:50;15.30;;;11.43;;
17763;SDS011;22245;52.832;13.816;2023-04-29T05:00:12;15.32;;;11.43;;
17763;SDS011;22245;52.832;13.816;2023-04-29T05:03:35;14.68;;;11.23;;
17763;SDS011;22245;52.832;13.816;2023-04-29T05:06:58;18.27;;;12.63;;
17763;SDS011;22245;52.832;13.816;2023-04-29T05:10:25;16.88;;;11.98;;
17763;SDS011;22245;52.832;13.816;2023-04-29T05:13:51;16.88;;;12.75;;
17763;SDS011;22245;52.832;13.816;2023-04-29T05:17:13;18.50;;;12.68;;
17763;SDS011;22245;52.832;13.816;2023-04-29T05:20:35;16.48;;;12.63;;
17763;SDS011;22245;52.832;13.816;2023-04-29T05:23:58;19.58;;;14.45;;
17763;SDS011;22245;52.832;13.816;2023-04-29T05:27:20;19.60;;;13.32;;
17763;SDS011;22245;52.832;13.816;2023-04-29T05:30:42;20.70;;;14.25;;
17763;SDS011;22245;52.832;13.816;2023-04-29T05:34:04;20.45;;;14.82;;
17763;SDS011;22245;52.832;13.816;2023-04-29T05:37:26;18.80;;;14.18;;
17763;SDS011;22245;52.832;13.816;2023-04-29T05:40:59;22.63;;;14.80;;
17763;SDS011;22245;52.832;13.816;2023-04-29T05:44:40;24.10;;;16.35;;
17763;SDS011;22245;52.832;13.816;2023-04-29T05:48:01;21.02;;;14.52;;
17763;SDS011;22245;52.832;13.816;2023-04-29T05:51:22;26.13;;;16.38;;
17763;SDS011;22245;52.832;13.816;2023-04-29T05:54:44;27.80;;;16.48;;
17763;SDS011;22245;52.832;13.816;2023-04-29T05:58:07;20.65;;;15.00;;
17763;SDS011;22245;52.832;13.816;2023-04-29T06:01:29;22.80;;;15.70;;
17763;SDS011;22245;52.832;13.816;2023-04-29T06:04:52;21.35;;;15.80;;
17763;SDS011;22245;52.832;13.816;2023-04-29T06:08:17;26.77;;;16.05;;
17763;SDS011;22245;52.832;13.816;2023-04-29T06:11:42;24.27;;;15.65;;
17763;SDS011;22245;52.832;13.816;2023-04-29T06:15:06;22.02;;;15.13;;
17763;SDS011;22245;52.832;13.816;2023-04-29T06:18:28;27.55;;;15.73;;
17763;SDS011;22245;52.832;13.816;2023-04-29T06:21:51;24.17;;;16.08;;
17763;SDS011;22245;52.832;13.816;2023-04-29T06:25:12;23.63;;;16.13;;
17763;SDS011;22245;52.832;13.816;2023-04-29T06:28:39;21.08;;;15.20;;
17763;SDS011;22245;52.832;13.816;2023-04-29T06:32:02;21.85;;;15.93;;
17763;SDS011;22245;52.832;13.816;2023-04-29T06:35:25;22.00;;;14.48;;
17763;SDS011;22245;52.832;13.816;2023-04-29T06:39:06;22.80;;;15.38;;
17763;SDS011;22245;52.832;13.816;2023-04-29T06:42:59;23.45;;;16.55;;
17763;SDS011;22245;52.832;13.816;2023-04-29T06:46:41;22.63;;;16.20;;
17763;SDS011;22245;52.832;13.816;2023-04-29T06:50:20;23.02;;;15.90;;
17763;SDS011;22245;52.832;13.816;2023-04-29T06:53:42;25.38;;;17.13;;
17763;SDS011;22245;52.832;13.816;2023-04-29T06:57:04;23.70;;;17.15;;
17763;SDS011;22245;52.832;13.816;2023-04-29T07:00:26;25.67;;;18.75;;
17763;SDS011;22245;52.832;13.816;2023-04-29T07:03:47;25.73;;;19.63;;
17763;SDS011;22245;52.832;13.816;2023-04-29T07:07:12;27.42;;;20.33;;
17763;SDS011;22245;52.832;13.816;2023-04-29T07:10:35;28.52;;;20.13;;
17763;SDS011;22245;52.832;13.816;2023-04-29T07:13:56;27.35;;;19.83;;
17763;SDS011;22245;52.832;13.816;2023-04-29T07:17:22;28.27;;;20.52;;
17763;SDS011;22245;52.832;13.816;2023-04-29T07:20:44;27.15;;;20.40;;
17763;SDS011;22245;52.832;13.816;2023-04-29T07:24:08;27.60;;;20.65;;
17763;SDS011;22245;52.832;13.816;2023-04-29T07:27:31;29.02;;;20.42;;
17763;SDS011;22245;52.832;13.816;2023-04-29T07:30:54;28.40;;;20.30;;
17763;SDS011;22245;52.832;13.816;2023-04-29T07:34:16;27.40;;;21.15;;
17763;SDS011;22245;52.832;13.816;2023-04-29T07:37:38;26.80;;;20.13;;
17763;SDS011;22245;52.832;13.816;2023-04-29T07:41:08;27.35;;;20.48;;
17763;SDS011;22245;52.832;13.816;2023-04-29T07:44:29;26.65;;;19.60;;
17763;SDS011;22245;52.832;13.816;2023-04-29T07:47:51;26.80;;;19.98;;
17763;SDS011;22245;52.832;13.816;2023-04-29T07:51:13;26.73;;;20.13;;
17763;SDS011;22245;52.832;13.816;2023-04-29T07:54:35;29.02;;;20.25;;
17763;SDS011;22245;52.832;13.816;2023-04-29T07:57:58;26.95;;;19.52;;
17763;SDS011;22245;52.832;13.816;2023-04-29T08:01:20;25.23;;;18.92;;
17763;SDS011;22245;52.832;13.816;2023-04-29T08:04:41;28.10;;;19.15;;
17763;SDS011;22245;52.832;13.816;2023-04-29T08:08:05;25.65;;;18.80;;
17763;SDS011;22245;52.832;13.816;2023-04-29T08:11:26;24.85;;;18.75;;
17763;SDS011;22245;52.832;13.816;2023-04-29T08:14:49;25.52;;;18.70;;
17763;SDS011;22245;52.832;13.816;2023-04-29T08:18:11;23.67;;;18.48;;
17763;SDS011;22245;52.832;13.816;2023-04-29T08:21:33;23.10;;;18.05;;
17763;SDS011;22245;52.832;13.816;2023-04-29T08:24:55;25.00;;;17.50;;
17763;SDS011;22245;52.832;13.816;2023-04-29T08:28:16;23.42;;;16.88;;
17763;SDS011;22245;52.832;13.816;2023-04-29T08:31:39;21.92;;;16.83;;
17763;SDS011;22245;52.832;13.816;2023-04-29T08:35:01;20.70;;;16.13;;
17763;SDS011;22245;52.832;13.816;2023-04-29T08:38:22;19.85;;;15.50;;
17763;SDS011;22245;52.832;13.816;2023-04-29T08:41:44;20.85;;;15.50;;
17763;SDS011;22245;52.832;13.816;2023-04-29T08:45:10;22.98;;;17.20;;
17763;SDS011;22245;52.832;13.816;2023-04-29T08:48:37;25.02;;;17.55;;
17763;SDS011;22245;52.832;13.816;2023-04-29T08:52:04;25.75;;;17.17;;
17763;SDS011;22245;52.832;13.816;2023-04-29T08:55:25;24.38;;;16.05;;
17763;SDS011;22245;52.832;13.816;2023-04-29T08:58:47;24.73;;;17.67;;
17763;SDS011;22245;52.832;13.816;2023-04-29T09:02:15;26.02;;;18.92;;
17763;SDS011;22245;52.832;13.816;2023-04-29T09:05:39;28.30;;;19.90;;
17763;SDS011;22245;52.832;13.816;2023-04-29T09:09:02;33.58;;;22.25;;
17763;SDS011;22245;52.832;13.816;2023-04-29T09:12:24;35.72;;;23.50;;
17763;SDS011;22245;52.832;13.816;2023-04-29T09:15:45;35.08;;;23.38;;
17763;SDS011;22245;52.832;13.816;2023-04-29T09:19:07;41.40;;;25.10;;
17763;SDS011;22245;52.832;13.816;2023-04-29T09:22:31;42.40;;;27.45;;
17763;SDS011;22245;52.832;13.816;2023-04-29T09:26:07;43.20;;;26.65;;
17763;SDS011;22245;52.832;13.816;2023-04-29T09:29:29;44.03;;;28.02;;
17763;SDS011;22245;52.832;13.816;2023-04-29T09:33:02;43.17;;;28.42;;
17763;SDS011;22245;52.832;13.816;2023-04-29T09:36:35;46.55;;;28.35;;
17763;SDS011;22245;52.832;13.816;2023-04-29T09:40:03;46.33;;;29.98;;
17763;SDS011;22245;52.832;13.816;2023-04-29T09:43:27;43.35;;;28.58;;
17763;SDS011;22245;52.832;13.816;2023-04-29T09:46:53;47.85;;;30.58;;
17763;SDS011;22245;52.832;13.816;2023-04-29T09:50:16;49.90;;;29.77;;
17763;SDS011;22245;52.832;13.816;2023-04-29T09:53:38;48.72;;;28.95;;
17763;SDS011;22245;52.832;13.816;2023-04-29T09:57:01;45.95;;;29.58;;
17763;SDS011;22245;52.832;13.816;2023-04-29T10:00:25;44.03;;;29.88;;
17763;SDS011;22245;52.832;13.816;2023-04-29T10:03:51;50.42;;;30.48;;
17763;SDS011;22245;52.832;13.816;2023-04-29T10:07:16;49.42;;;30.05;;
17763;SDS011;22245;52.832;13.816;2023-04-29T10:10:38;49.38;;;31.67;;
17763;SDS011;22245;52.832;13.816;2023-04-29T10:14:02;47.20;;;29.95;;
17763;SDS011;22245;52.832;13.816;2023-04-29T10:17:27;42.97;;;29.70;;
17763;SDS011;22245;52.832;13.816;2023-04-29T10:20:56;41.88;;;27.70;;
17763;SDS011;22245;52.832;13.816;2023-04-29T10:24:21;43.63;;;28.73;;
17763;SDS011;22245;52.832;13.816;2023-04-29T10:27:43;41.85;;;27.58;;
17763;SDS011;22245;52.832;13.816;2023-04-29T10:31:06;40.65;;;27.40;;
17763;SDS011;22245;52.832;13.816;2023-04-29T10:34:29;38.85;;;27.63;;
17763;SDS011;22245;52.832;13.816;2023-04-29T10:37:53;42.25;;;26.83;;
17763;SDS011;22245;52.832;13.816;2023-04-29T10:41:20;37.13;;;25.02;;
17763;SDS011;22245;52.832;13.816;2023-04-29T10:48:44;34.67;;;24.58;;
17763;SDS011;22245;52.832;13.816;2023-04-29T10:52:06;32.33;;;23.38;;
17763;SDS011;22245;52.832;13.816;2023-04-29T10:55:27;33.15;;;23.25;;
17763;SDS011;22245;52.832;13.816;2023-04-29T10:58:49;32.78;;;23.08;;
17763;SDS011;22245;52.832;13.816;2023-04-29T11:02:10;33.45;;;23.25;;
17763;SDS011;22245;52.832;13.816;2023-04-29T11:05:35;29.92;;;22.45;;
17763;SDS011;22245;52.832;13.816;2023-04-29T11:09:01;31.67;;;22.05;;
17763;SDS011;22245;52.832;13.816;2023-04-29T11:12:23;30.35;;;22.08;;
17763;SDS011;22245;52.832;13.816;2023-04-29T11:15:45;30.33;;;21.63;;
17763;SDS011;22245;52.832;13.816;2023-04-29T11:19:07;28.75;;;21.63;;
17763;SDS011;22245;52.832;13.816;2023-04-29T11:22:32;28.08;;;21.00;;
17763;SDS011;22245;52.832;13.816;2023-04-29T11:25:53;28.65;;;20.27;;
17763;SDS011;22245;52.832;13.816;2023-04-29T11:29:15;28.17;;;19.92;;
17763;SDS011;22245;52.832;13.816;2023-04-29T11:32:40;28.17;;;19.42;;
17763;SDS011;22245;52.832;13.816;2023-04-29T11:36:03;26.95;;;19.23;;
17763;SDS011;22245;52.832;13.816;2023-04-29T11:39:26;25.70;;;18.55;;
17763;SDS011;22245;52.832;13.816;2023-04-29T11:42:48;25.83;;;18.27;;
17763;SDS011;22245;52.832;13.816;2023-04-29T11:46:11;26.40;;;19.15;;
17763;SDS011;22245;52.832;13.816;2023-04-29T11:49:33;24.05;;;17.42;;
17763;SDS011;22245;52.832;13.816;2023-04-29T11:52:56;23.33;;;16.70;;
17763;SDS011;22245;52.832;13.816;2023-04-29T11:56:21;21.88;;;14.85;;
17763;SDS011;22245;52.832;13.816;2023-04-29T11:59:45;18.42;;;13.98;;
17763;SDS011;22245;52.832;13.816;2023-04-29T12:03:07;20.30;;;14.02;;
17763;SDS011;22245;52.832;13.816;2023-04-29T12:06:34;21.52;;;13.88;;
17763;SDS011;22245;52.832;13.816;2023-04-29T12:09:56;20.83;;;13.48;;
17763;SDS011;22245;52.832;13.816;2023-04-29T12:13:18;20.00;;;13.00;;
17763;SDS011;22245;52.832;13.816;2023-04-29T12:16:41;18.60;;;13.15;;
17763;SDS011;22245;52.832;13.816;2023-04-29T12:20:03;18.25;;;12.75;;
17763;SDS011;22245;52.832;13.816;2023-04-29T12:23:25;22.75;;;13.40;;
17763;SDS011;22245;52.832;13.816;2023-04-29T12:26:48;18.10;;;12.90;;
17763;SDS011;22245;52.832;13.816;2023-04-29T12:30:11;17.38;;;12.25;;
17763;SDS011;22245;52.832;13.816;2023-04-29T12:33:33;17.88;;;12.45;;
17763;SDS011;22245;52.832;13.816;2023-04-29T12:36:55;18.20;;;12.73;;
17763;SDS011;22245;52.832;13.816;2023-04-29T12:40:17;14.20;;;11.57;;
17763;SDS011;22245;52.832;13.816;2023-04-29T12:43:40;17.80;;;12.02;;
17763;SDS011;22245;52.832;13.816;2023-04-29T12:47:07;17.77;;;12.23;;
17763;SDS011;22245;52.832;13.816;2023-04-29T12:50:30;17.55;;;11.77;;
17763;SDS011;22245;52.832;13.816;2023-04-29T12:53:53;14.32;;;10.85;;
17763;SDS011;22245;52.832;13.816;2023-04-29T12:57:15;14.23;;;10.57;;
17763;SDS011;22245;52.832;13.816;2023-04-29T13:00:37;18.52;;;10.95;;
17763;SDS011;22245;52.832;13.816;2023-04-29T13:04:00;19.10;;;11.10;;
17763;SDS011;22245;52.832;13.816;2023-04-29T13:07:24;23.23;;;11.40;;
17763;SDS011;22245;52.832;13.816;2023-04-29T13:10:45;17.17;;;11.80;;
17763;SDS011;22245;52.832;13.816;2023-04-29T13:14:07;17.13;;;12.00;;
17763;SDS011;22245;52.832;13.816;2023-04-29T13:17:30;19.38;;;11.52;;
17763;SDS011;22245;52.832;13.816;2023-04-29T13:20:54;15.25;;;11.30;;
17763;SDS011;22245;52.832;13.816;2023-04-29T13:24:15;15.98;;;12.07;;
17763;SDS011;22245;52.832;13.816;2023-04-29T13:27:39;15.68;;;12.63;;
17763;SDS011;22245;52.832;13.816;2023-04-29T13:31:00;17.65;;;11.82;;
17763;SDS011;22245;52.832;13.816;2023-04-29T13:34:22;16.65;;;11.40;;
17763;SDS011;22245;52.832;13.816;2023-04-29T13:37:45;16.52;;;10.93;;
17763;SDS011;22245;52.832;13.816;2023-04-29T13:41:07;15.93;;;11.45;;
17763;SDS011;22245;52.832;13.816;2023-04-29T13:44:36;18.90;;;11.77;;
17763;SDS011;22245;52.832;13.816;2023-04-29T13:48:17;14.57;;;10.20;;
17763;SDS011;22245;52.832;13.816;2023-04-29T13:51:59;12.70;;;10.02;;
17763;SDS011;22245;52.832;13.816;2023-04-29T13:55:25;12.00;;;9.40;;
17763;SDS011;22245;52.832;13.816;2023-04-29T13:59:08;12.57;;;9.13;;
17763;SDS011;22245;52.832;13.816;2023-04-29T14:02:33;12.25;;;9.40;;
17763;SDS011;22245;52.832;13.816;2023-04-29T14:05:56;14.65;;;9.07;;
17763;SDS011;22245;52.832;13.816;2023-04-29T14:09:17;14.48;;;8.73;;
17763;SDS011;22245;52.832;13.816;2023-04-29T14:12:40;13.13;;;8.50;;
17763;SDS011;22245;52.832;13.816;2023-04-29T14:16:02;13.60;;;9.10;;
17763;SDS011;22245;52.832;13.816;2023-04-29T14:19:26;13.15;;;8.50;;
17763;SDS011;22245;52.832;13.816;2023-04-29T14:22:47;13.80;;;9.43;;
17763;SDS011;22245;52.832;13.816;2023-04-29T14:26:09;12.88;;;8.82;;
17763;SDS011;22245;52.832;13.816;2023-04-29T14:29:49;10.65;;;8.50;;
17763;SDS011;22245;52.832;13.816;2023-04-29T14:33:11;10.32;;;8.02;;
17763;SDS011;22245;52.832;13.816;2023-04-29T14:36:32;14.40;;;8.80;;
17763;SDS011;22245;52.832;13.816;2023-04-29T14:39:54;11.98;;;8.45;;
17763;SDS011;22245;52.832;13.816;2023-04-29T14:43:16;12.57;;;8.18;;
17763;SDS011;22245;52.832;13.816;2023-04-29T14:46:38;10.27;;;8.20;;
17763;SDS011;22245;52.832;13.816;2023-04-29T14:50:01;10.90;;;8.20;;
17763;SDS011;22245;52.832;13.816;2023-04-29T14:53:22;10.40;;;7.55;;
17763;SDS011;22245;52.832;13.816;2023-04-29T14:56:44;15.52;;;8.70;;
17763;SDS011;22245;52.832;13.816;2023-04-29T15:00:06;10.77;;;7.70;;
17763;SDS011;22245;52.832;13.816;2023-04-29T15:03:31;13.38;;;7.90;;
17763;SDS011;22245;52.832;13.816;2023-04-29T15:07:01;11.02;;;7.28;;
17763;SDS011;22245;52.832;13.816;2023-04-29T15:10:23;10.07;;;7.82;;
17763;SDS011;22245;52.832;13.816;2023-04-29T15:13:44;9.65;;;7.60;;
17763;SDS011;22245;52.832;13.816;2023-04-29T15:17:05;14.10;;;8.07;;
17763;SDS011;22245;52.832;13.816;2023-04-29T15:20:29;10.10;;;7.78;;
17763;SDS011;22245;52.832;13.816;2023-04-29T15:23:51;13.80;;;7.97;;
17763;SDS011;22245;52.832;13.816;2023-04-29T15:27:13;11.32;;;7.63;;
17763;SDS011;22245;52.832;13.816;2023-04-29T15:30:35;14.00;;;7.82;;
17763;SDS011;22245;52.832;13.816;2023-04-29T15:33:57;14.30;;;7.72;;
17763;SDS011;22245;52.832;13.816;2023-04-29T15:37:20;11.63;;;7.15;;
17763;SDS011;22245;52.832;13.816;2023-04-29T15:40:44;12.18;;;7.00;;
17763;SDS011;22245;52.832;13.816;2023-04-29T15:44:05;11.57;;;7.28;;
17763;SDS011;22245;52.832;13.816;2023-04-29T15:47:27;11.80;;;7.28;;
17763;SDS011;22245;52.832;13.816;2023-04-29T15:50:48;12.93;;;7.28;;
17763;SDS011;22245;52.832;13.816;2023-04-29T15:54:11;13.05;;;7.70;;
17763;SDS011;22245;52.832;13.816;2023-04-29T15:57:32;9.50;;;7.15;;
17763;SDS011;22245;52.832;13.816;2023-04-29T16:00:59;10.30;;;7.22;;
17763;SDS011;22245;52.832;13.816;2023-04-29T16:04:21;12.10;;;6.82;;
17763;SDS011;22245;52.832;13.816;2023-04-29T16:07:42;12.52;;;8.20;;
17763;SDS011;22245;52.832;13.816;2023-04-29T16:11:04;12.30;;;7.80;;
17763;SDS011;22245;52.832;13.816;2023-04-29T16:14:26;14.00;;;7.47;;
17763;SDS011;22245;52.832;13.816;2023-04-29T16:17:48;10.07;;;7.05;;
17763;SDS011;22245;52.832;13.816;2023-04-29T16:21:09;9.30;;;7.43;;
17763;SDS011;22245;52.832;13.816;2023-04-29T16:24:32;14.45;;;7.55;;
17763;SDS011;22245;52.832;13.816;2023-04-29T16:27:56;9.27;;;7.13;;
17763;SDS011;22245;52.832;13.816;2023-04-29T16:31:17;14.23;;;8.20;;
17763;SDS011;22245;52.832;13.816;2023-04-29T16:34:39;12.40;;;7.38;;
17763;SDS011;22245;52.832;13.816;2023-04-29T16:38:00;9.93;;;7.40;;
17763;SDS011;22245;52.832;13.816;2023-04-29T16:41:22;11.50;;;6.82;;
17763;SDS011;22245;52.832;13.816;2023-04-29T16:44:46;9.27;;;6.72;;
17763;SDS011;22245;52.832;13.816;2023-04-29T16:48:08;10.50;;;6.05;;
17763;SDS011;22245;52.832;13.816;2023-04-29T16:51:30;6.95;;;5.60;;
17763;SDS011;22245;52.832;13.816;2023-04-29T16:54:52;9.70;;;5.95;;
17763;SDS011;22245;52.832;13.816;2023-04-29T16:58:15;6.82;;;5.40;;
17763;SDS011;22245;52.832;13.816;2023-04-29T17:01:38;6.25;;;4.50;;
17763;SDS011;22245;52.832;13.816;2023-04-29T17:04:59;8.40;;;4.80;;
17763;SDS011;22245;52.832;13.816;2023-04-29T17:08:21;7.40;;;4.03;;
17763;SDS011;22245;52.832;13.816;2023-04-29T17:11:44;5.20;;;3.63;;
17763;SDS011;22245;52.832;13.816;2023-04-29T17:15:06;6.15;;;3.58;;
17763;SDS011;22245;52.832;13.816;2023-04-29T17:18:30;6.65;;;3.55;;
17763;SDS011;22245;52.832;13.816;2023-04-29T17:21:51;11.55;;;5.43;;
17763;SDS011;22245;52.832;13.816;2023-04-29T17:25:13;11.05;;;4.68;;
17763;SDS011;22245;52.832;13.816;2023-04-29T17:28:35;7.38;;;4.20;;
17763;SDS011;22245;52.832;13.816;2023-04-29T17:31:57;5.30;;;3.60;;
17763;SDS011;22245;52.832;13.816;2023-04-29T17:35:22;5.88;;;3.65;;
17763;SDS011;22245;52.832;13.816;2023-04-29T17:38:44;4.70;;;3.90;;
17763;SDS011;22245;52.832;13.816;2023-04-29T17:42:05;5.43;;;3.75;;
17763;SDS011;22245;52.832;13.816;2023-04-29T17:45:27;7.97;;;3.70;;
17763;SDS011;22245;52.832;13.816;2023-04-29T17:48:48;5.38;;;3.53;;
17763;SDS011;22245;52.832;13.816;2023-04-29T17:52:11;4.85;;;3.22;;
17763;SDS011;22245;52.832;13.816;2023-04-29T17:55:36;8.35;;;3.88;;
17763;SDS011;22245;52.832;13.816;2023-04-29T17:58:58;7.15;;;3.83;;
17763;SDS011;22245;52.832;13.816;2023-04-29T18:02:19;3.75;;;2.85;;
17763;SDS011;22245;52.832;13.816;2023-04-29T18:05:41;10.48;;;3.10;;
17763;SDS011;22245;52.832;13.816;2023-04-29T18:09:04;5.78;;;3.00;;
17763;SDS011;22245;52.832;13.816;2023-04-29T18:12:26;3.78;;;3.17;;
17763;SDS011;22245;52.832;13.816;2023-04-29T18:15:48;5.38;;;3.20;;
17763;SDS011;22245;52.832;13.816;2023-04-29T18:19:09;8.00;;;3.53;;
17763;SDS011;22245;52.832;13.816;2023-04-29T18:22:33;4.95;;;2.90;;
17763;SDS011;22245;52.832;13.816;2023-04-29T18:25:57;6.35;;;3.35;;
17763;SDS011;22245;52.832;13.816;2023-04-29T18:29:19;7.90;;;4.05;;
17763;SDS011;22245;52.832;13.816;2023-04-29T18:32:41;6.18;;;3.85;;
17763;SDS011;22245;52.832;13.816;2023-04-29T18:36:03;9.20;;;3.95;;
17763;SDS011;22245;52.832;13.816;2023-04-29T18:39:25;8.05;;;4.00;;
17763;SDS011;22245;52.832;13.816;2023-04-29T18:42:49;7.75;;;4.00;;
17763;SDS011;22245;52.832;13.816;2023-04-29T18:46:11;7.35;;;4.15;;
17763;SDS011;22245;52.832;13.816;2023-04-29T18:49:32;6.88;;;3.78;;
17763;SDS011;22245;52.832;13.816;2023-04-29T18:52:57;8.07;;;4.60;;
17763;SDS011;22245;52.832;13.816;2023-04-29T18:56:19;8.30;;;4.75;;
17763;SDS011;22245;52.832;13.816;2023-04-29T18:59:42;7.95;;;4.82;;
17763;SDS011;22245;52.832;13.816;2023-04-29T19:03:03;10.90;;;5.28;;
17763;SDS011;22245;52.832;13.816;2023-04-29T19:06:25;9.98;;;5.78;;
17763;SDS011;22245;52.832;13.816;2023-04-29T19:09:47;5.82;;;4.70;;
17763;SDS011;22245;52.832;13.816;2023-04-29T19:13:09;5.68;;;4.25;;
17763;SDS011;22245;52.832;13.816;2023-04-29T19:16:32;9.23;;;4.90;;
17763;SDS011;22245;52.832;13.816;2023-04-29T19:19:56;10.52;;;6.05;;
17763;SDS011;22245;52.832;13.816;2023-04-29T19:23:18;12.10;;;6.53;;
17763;SDS011;22245;52.832;13.816;2023-04-29T19:26:39;10.18;;;6.30;;
17763;SDS011;22245;52.832;13.816;2023-04-29T19:30:01;11.55;;;5.90;;
17763;SDS011;22245;52.832;13.816;2023-04-29T19:33:24;9.10;;;6.05;;
17763;SDS011;22245;52.832;13.816;2023-04-29T19:36:46;10.88;;;6.93;;
17763;SDS011;22245;52.832;13.816;2023-04-29T19:40:08;8.73;;;6.22;;
17763;SDS011;22245;52.832;13.816;2023-04-29T19:43:30;13.40;;;6.93;;
17763;SDS011;22245;52.832;13.816;2023-04-29T19:46:51;14.27;;;8.10;;